Time;durP1;ratioP1;P1;durP2;ratioP2;P2;SDS_P1;SDS_P2;PMS_P1;PMS_P2;Temp;Humidity;BMP_temperature;BMP_pressure;BME280_temperature;BME280_humidity;BME280_pressure;Samples;Min_cycle;Max_cycle;Signal;HPM_P1;HPM_P2
2021/12/18 00:00:36;;;;;;;1.67;1.40;;;6.50;98.20;;;;;;5067283;28;20469;-76
2021/12/18 00:03:03;;;;;;;1.63;1.30;;;6.60;98.20;;;;;;5060622;28;20473;-74
2021/12/18 00:05:30;;;;;;;1.60;1.30;;;6.60;98.20;;;;;;5057194;28;20465;-75
2021/12/18 00:07:57;;;;;;;1.70;1.40;;;6.70;98.20;;;;;;5066730;28;20481;-75
2021/12/18 00:10:24;;;;;;;1.60;1.30;;;6.70;98.20;;;;;;5066661;28;20923;-74
2021/12/18 00:12:53;;;;;;;1.60;1.30;;;6.70;98.20;;;;;;5059277;28;20869;-76
2021/12/18 00:15:21;;;;;;;1.63;1.30;;;6.80;98.20;;;;;;5060642;28;20462;-74
2021/12/18 00:17:48;;;;;;;1.60;1.30;;;6.80;98.20;;;;;;5067472;28;20489;-74
2021/12/18 00:20:16;;;;;;;2.00;1.80;;;6.80;98.20;;;;;;5066629;28;20969;-76
2021/12/18 00:22:44;;;;;;;1.70;1.30;;;6.80;98.20;;;;;;5066635;28;20469;-75
2021/12/18 00:25:11;;;;;;;1.63;1.30;;;6.90;98.20;;;;;;5065853;28;20461;-76
2021/12/18 00:27:38;;;;;;;1.63;1.30;;;6.90;98.20;;;;;;5066461;28;20499;-74
2021/12/18 00:30:10;;;;;;;1.60;1.30;;;6.90;98.20;;;;;;5066737;28;20489;-75
2021/12/18 00:32:37;;;;;;;1.60;1.30;;;6.90;98.20;;;;;;5064208;28;21259;-75
2021/12/18 00:35:05;;;;;;;1.60;1.30;;;6.90;98.20;;;;;;5065735;28;20548;-75
2021/12/18 00:37:32;;;;;;;1.67;1.30;;;6.90;98.20;;;;;;5065725;28;20489;-75
2021/12/18 00:40:01;;;;;;;1.67;1.30;;;6.90;98.20;;;;;;5065991;28;20461;-74
2021/12/18 00:42:39;;;;;;;1.60;1.30;;;7.00;98.20;;;;;;5065024;28;20465;-74
2021/12/18 00:45:10;;;;;;;1.67;1.30;;;7.00;98.20;;;;;;5061266;28;20473;-75
2021/12/18 00:47:38;;;;;;;1.60;1.30;;;7.00;98.20;;;;;;5062914;28;20481;-74
2021/12/18 00:50:07;;;;;;;1.60;1.30;;;7.00;98.20;;;;;;5067189;28;20575;-74
2021/12/18 00:52:34;;;;;;;1.60;1.30;;;7.00;98.20;;;;;;5065728;28;20869;-75
2021/12/18 00:55:01;;;;;;;1.63;1.30;;;7.00;98.20;;;;;;5065592;28;20465;-74
2021/12/18 00:57:28;;;;;;;1.60;1.30;;;7.00;98.20;;;;;;5064881;28;20997;-76
2021/12/18 01:00:00;;;;;;;1.63;1.30;;;7.00;98.20;;;;;;5061599;28;20489;-75
2021/12/18 01:02:29;;;;;;;1.60;1.30;;;7.00;98.20;;;;;;5065140;28;20453;-77
2021/12/18 01:04:58;;;;;;;1.63;1.30;;;7.00;98.20;;;;;;5065381;28;20859;-76
2021/12/18 01:07:25;;;;;;;1.60;1.30;;;7.00;98.20;;;;;;5065715;28;20485;-76
2021/12/18 01:10:01;;;;;;;1.60;1.30;;;7.00;98.20;;;;;;5065905;28;20492;-76
2021/12/18 01:12:34;;;;;;;1.60;1.20;;;7.00;98.20;;;;;;5062180;28;20635;-77
2021/12/18 01:15:13;;;;;;;1.63;1.30;;;7.00;98.20;;;;;;5065628;28;20493;-76
2021/12/18 01:23:11;;;;;;;1.60;1.30;;;7.10;98.20;;;;;;5062632;28;20440;-77
2021/12/18 01:25:38;;;;;;;1.70;1.30;;;7.10;98.20;;;;;;5064591;28;20472;-76
2021/12/18 01:28:06;;;;;;;1.60;1.23;;;7.10;98.20;;;;;;5058612;28;20492;-77
2021/12/18 01:30:33;;;;;;;1.60;1.30;;;7.10;98.20;;;;;;5065438;28;20572;-76
2021/12/18 01:33:01;;;;;;;1.60;1.30;;;7.10;98.20;;;;;;5065179;28;20469;-76
2021/12/18 01:35:28;;;;;;;1.60;1.20;;;7.10;98.20;;;;;;5065434;28;20492;-77
2021/12/18 01:37:55;;;;;;;1.63;1.30;;;7.10;98.20;;;;;;5064830;28;20493;-74
2021/12/18 01:40:23;;;;;;;1.63;1.30;;;7.10;98.20;;;;;;5059910;28;20458;-76
2021/12/18 01:46:04;;;;;;;1.63;1.30;;;7.10;98.20;;;;;;5064688;28;20490;-77
2021/12/18 01:51:22;;;;;;;1.60;1.20;;;7.10;98.20;;;;;;5055316;28;20450;-75
2021/12/18 01:53:51;;;;;;;1.67;1.30;;;7.10;98.20;;;;;;5060123;28;20534;-76
2021/12/18 01:56:18;;;;;;;1.60;1.30;;;7.20;98.20;;;;;;5064283;28;20473;-75
2021/12/18 01:58:46;;;;;;;1.60;1.30;;;7.20;98.20;;;;;;5065581;28;20513;-77
2021/12/18 02:01:14;;;;;;;1.60;1.30;;;7.20;98.20;;;;;;5060180;28;20473;-74
2021/12/18 02:03:43;;;;;;;1.63;1.30;;;7.20;98.20;;;;;;5061667;28;20465;-76
2021/12/18 02:06:11;;;;;;;1.60;1.30;;;7.20;98.20;;;;;;5064499;28;20465;-77
2021/12/18 02:08:39;;;;;;;1.60;1.30;;;7.20;98.20;;;;;;5064647;28;21156;-74
2021/12/18 02:11:15;;;;;;;1.60;1.27;;;7.20;98.20;;;;;;5062940;28;21309;-76
2021/12/18 02:19:46;;;;;;;1.67;1.30;;;7.20;98.20;;;;;;5015231;28;20979;-75
2021/12/18 02:22:14;;;;;;;1.60;1.30;;;7.20;98.20;;;;;;5036227;28;20465;-75
2021/12/18 02:24:41;;;;;;;1.60;1.30;;;7.30;98.20;;;;;;5037347;28;20801;-75
2021/12/18 02:27:08;;;;;;;1.60;1.40;;;7.30;98.20;;;;;;5036248;28;20462;-75
2021/12/18 02:29:38;;;;;;;1.60;1.20;;;7.30;98.20;;;;;;5041014;28;20474;-75
2021/12/18 02:32:06;;;;;;;1.60;1.30;;;7.30;98.20;;;;;;5036603;28;20459;-74
2021/12/18 02:34:36;;;;;;;1.60;1.20;;;7.30;98.20;;;;;;5035032;28;20544;-74
2021/12/18 02:37:05;;;;;;;1.70;1.30;;;7.30;98.20;;;;;;5037352;28;20915;-73
2021/12/18 02:42:20;;;;;;;1.60;1.27;;;7.30;98.20;;;;;;5023040;28;20463;-73
2021/12/18 02:44:47;;;;;;;1.60;1.30;;;7.30;98.20;;;;;;5040212;28;20469;-72
2021/12/18 02:47:14;;;;;;;1.67;1.30;;;7.30;98.20;;;;;;5039732;28;20615;-73
2021/12/18 02:49:45;;;;;;;1.70;1.30;;;7.30;98.20;;;;;;5035983;28;20947;-73
2021/12/18 02:52:12;;;;;;;1.63;1.33;;;7.30;98.20;;;;;;5035321;28;21513;-73
2021/12/18 02:54:41;;;;;;;1.60;1.23;;;7.30;98.20;;;;;;5038085;28;21010;-74
2021/12/18 02:57:09;;;;;;;1.70;1.30;;;7.30;98.20;;;;;;5039300;28;20524;-75
2021/12/18 02:59:44;;;;;;;1.60;1.30;;;7.30;98.20;;;;;;5037940;28;20492;-73
2021/12/18 03:02:11;;;;;;;1.63;1.30;;;7.30;98.20;;;;;;5033274;28;20550;-73
2021/12/18 03:04:40;;;;;;;1.60;1.20;;;7.30;98.20;;;;;;5032732;28;20524;-75
2021/12/18 03:07:09;;;;;;;1.60;1.30;;;7.30;98.20;;;;;;5031892;28;20963;-75
2021/12/18 03:18:56;;;;;;;3.70;3.00;;;7.30;98.20;;;;;;5035191;28;20481;-75
2021/12/18 03:23:56;;;;;;;1.60;1.20;;;7.30;98.20;;;;;;5041042;28;20994;-75
2021/12/18 03:26:23;;;;;;;1.70;1.30;;;7.30;98.20;;;;;;5027813;28;20967;-75
2021/12/18 03:28:51;;;;;;;1.67;1.33;;;7.30;98.20;;;;;;5029580;28;20483;-74
2021/12/18 03:31:18;;;;;;;1.60;1.20;;;7.30;98.20;;;;;;5024142;28;20872;-75
2021/12/18 03:33:45;;;;;;;1.63;1.30;;;7.30;98.20;;;;;;5026429;28;20456;-74
2021/12/18 03:36:11;;;;;;;1.60;1.30;;;7.30;98.20;;;;;;5028122;28;20487;-74
2021/12/18 03:38:39;;;;;;;1.60;1.20;;;7.30;98.20;;;;;;5029273;28;21127;-76
2021/12/18 03:41:06;;;;;;;1.70;1.37;;;7.30;98.20;;;;;;5027638;28;20603;-77
2021/12/18 03:43:33;;;;;;;1.60;1.20;;;7.30;98.20;;;;;;5023725;28;20470;-76
2021/12/18 03:46:01;;;;;;;1.70;1.60;;;7.30;98.20;;;;;;5022101;28;20747;-74
2021/12/18 03:48:28;;;;;;;1.70;1.40;;;7.30;98.20;;;;;;5023623;28;20510;-76
2021/12/18 03:50:55;;;;;;;1.60;1.30;;;7.30;98.20;;;;;;5028889;28;20516;-74
2021/12/18 03:53:22;;;;;;;1.60;1.30;;;7.30;98.20;;;;;;5028914;28;20494;-74
2021/12/18 03:55:48;;;;;;;1.60;1.30;;;7.30;98.20;;;;;;5028229;28;20515;-74
2021/12/18 03:58:15;;;;;;;1.60;1.30;;;7.40;98.20;;;;;;5029143;28;20920;-76
2021/12/18 04:00:42;;;;;;;1.67;1.40;;;7.40;98.20;;;;;;5029517;28;20463;-76
2021/12/18 04:03:11;;;;;;;1.60;1.30;;;7.40;98.20;;;;;;5028528;28;20554;-76
2021/12/18 04:05:38;;;;;;;1.60;1.20;;;7.40;98.20;;;;;;5029406;28;20490;-74
2021/12/18 04:08:11;;;;;;;1.63;1.30;;;7.40;98.20;;;;;;5024669;28;20491;-76
2021/12/18 04:10:39;;;;;;;1.60;1.30;;;7.40;98.20;;;;;;5025943;28;20466;-74
2021/12/18 04:13:07;;;;;;;1.60;1.20;;;7.40;98.20;;;;;;5028854;28;20459;-74
2021/12/18 04:15:35;;;;;;;1.60;1.20;;;7.40;98.20;;;;;;5023504;28;20503;-76
2021/12/18 04:18:02;;;;;;;1.90;1.70;;;7.40;98.20;;;;;;5029556;28;20494;-74
2021/12/18 04:20:30;;;;;;;1.60;1.27;;;7.40;98.20;;;;;;5026432;28;20478;-76
2021/12/18 04:22:58;;;;;;;1.60;1.20;;;7.40;98.20;;;;;;5028077;28;20454;-76
2021/12/18 04:25:25;;;;;;;1.60;1.20;;;7.40;98.20;;;;;;5024072;28;20479;-76
2021/12/18 04:27:52;;;;;;;1.63;1.30;;;7.40;98.20;;;;;;5027064;28;21023;-78
2021/12/18 04:30:19;;;;;;;1.60;1.30;;;7.40;98.20;;;;;;5028885;28;20948;-75
2021/12/18 04:32:46;;;;;;;1.70;1.40;;;7.50;98.20;;;;;;5028301;28;20470;-74
2021/12/18 04:35:13;;;;;;;1.63;1.30;;;7.50;98.20;;;;;;5027934;28;20499;-76
2021/12/18 04:37:41;;;;;;;1.60;1.30;;;7.50;98.20;;;;;;5027628;28;20483;-75
2021/12/18 04:40:09;;;;;;;1.60;1.30;;;7.50;98.20;;;;;;5027934;28;20487;-75
2021/12/18 04:42:36;;;;;;;1.60;1.30;;;7.50;98.20;;;;;;5028154;28;20467;-76
2021/12/18 04:45:04;;;;;;;1.60;1.30;;;7.50;98.20;;;;;;5028494;28;20680;-76
2021/12/18 04:47:31;;;;;;;1.60;1.30;;;7.50;98.20;;;;;;5028313;28;20574;-75
2021/12/18 04:49:58;;;;;;;1.70;1.30;;;7.50;98.20;;;;;;5029187;28;20628;-76
2021/12/18 04:52:25;;;;;;;1.70;1.40;;;7.50;98.20;;;;;;5027453;28;21022;-75
2021/12/18 04:54:54;;;;;;;1.60;1.20;;;7.50;98.20;;;;;;5027782;28;20475;-76
2021/12/18 04:57:21;;;;;;;1.60;1.20;;;7.50;98.20;;;;;;5027647;28;20492;-75
2021/12/18 04:59:48;;;;;;;1.60;1.30;;;7.50;98.20;;;;;;5028779;28;20474;-76
2021/12/18 05:02:19;;;;;;;1.60;1.30;;;7.50;98.20;;;;;;5027279;28;20467;-76
2021/12/18 05:04:46;;;;;;;1.60;1.20;;;7.50;98.20;;;;;;5028481;28;20838;-75
2021/12/18 05:07:13;;;;;;;1.63;1.30;;;7.50;98.20;;;;;;5025782;28;20475;-75
2021/12/18 05:09:40;;;;;;;1.60;1.30;;;7.50;98.20;;;;;;5028279;28;20463;-76
2021/12/18 05:12:10;;;;;;;1.70;1.40;;;7.40;98.20;;;;;;5027083;28;20467;-76
2021/12/18 05:14:37;;;;;;;1.60;1.20;;;7.50;98.20;;;;;;5026584;28;20483;-75
2021/12/18 05:17:04;;;;;;;1.60;1.20;;;7.50;98.20;;;;;;5027569;28;20487;-77
2021/12/18 05:19:31;;;;;;;1.60;1.20;;;7.50;98.20;;;;;;5027469;28;21009;-75
2021/12/18 05:21:58;;;;;;;1.60;1.20;;;7.40;98.20;;;;;;5027429;28;20471;-75
2021/12/18 05:24:24;;;;;;;1.60;1.27;;;7.40;98.20;;;;;;5027296;28;20471;-75
2021/12/18 05:26:52;;;;;;;1.60;1.30;;;7.40;98.20;;;;;;5027034;28;20459;-75
2021/12/18 05:29:20;;;;;;;1.63;1.30;;;7.40;98.20;;;;;;5027779;28;20964;-75
2021/12/18 05:31:47;;;;;;;1.60;1.30;;;7.40;98.20;;;;;;5023333;28;21306;-75
2021/12/18 05:34:21;;;;;;;1.60;1.20;;;7.40;98.20;;;;;;5026341;28;20455;-76
2021/12/18 05:39:32;;;;;;;1.60;1.20;;;7.30;98.20;;;;;;5045899;28;20513;-76
2021/12/18 05:41:59;;;;;;;1.60;1.27;;;7.30;98.20;;;;;;5046952;28;20977;-76
2021/12/18 05:44:27;;;;;;;1.60;1.30;;;7.30;98.20;;;;;;5046643;28;20463;-76
2021/12/18 05:46:55;;;;;;;1.60;1.20;;;7.30;98.20;;;;;;5045985;28;20888;-76
2021/12/18 05:49:22;;;;;;;1.60;1.23;;;7.30;98.20;;;;;;5046815;28;20977;-76
2021/12/18 05:51:50;;;;;;;1.70;1.43;;;7.30;98.20;;;;;;5047052;28;20473;-77
2021/12/18 05:54:19;;;;;;;1.60;1.27;;;7.20;98.20;;;;;;5046780;28;20462;-76
2021/12/18 05:56:47;;;;;;;1.60;1.20;;;7.20;98.20;;;;;;5046681;28;20490;-77
2021/12/18 05:59:13;;;;;;;1.67;1.40;;;7.20;98.20;;;;;;5046854;28;20463;-76
2021/12/18 06:01:43;;;;;;;1.60;1.30;;;7.20;98.20;;;;;;5047259;28;20471;-76
2021/12/18 06:04:10;;;;;;;1.60;1.30;;;7.10;98.20;;;;;;5047803;28;20553;-76
2021/12/18 06:06:37;;;;;;;1.63;1.30;;;7.10;98.20;;;;;;5046813;28;20485;-77
2021/12/18 06:09:05;;;;;;;1.63;1.30;;;7.10;98.20;;;;;;5045236;28;20625;-77
2021/12/18 06:11:36;;;;;;;1.67;1.30;;;7.10;98.20;;;;;;5047165;28;20470;-76
2021/12/18 06:14:03;;;;;;;1.60;1.30;;;7.00;98.20;;;;;;5042105;28;20549;-76
2021/12/18 06:16:30;;;;;;;1.63;1.30;;;7.00;98.20;;;;;;5047212;28;21013;-76
2021/12/18 06:18:58;;;;;;;1.60;1.30;;;7.00;98.20;;;;;;5046383;28;20982;-77
2021/12/18 06:21:25;;;;;;;1.60;1.20;;;7.00;98.20;;;;;;5047103;28;20470;-77
2021/12/18 06:23:54;;;;;;;1.60;1.30;;;6.90;98.20;;;;;;5047527;28;20473;-77
2021/12/18 06:26:21;;;;;;;1.60;1.23;;;6.90;98.20;;;;;;5046338;28;20455;-77
2021/12/18 06:28:49;;;;;;;1.70;1.40;;;6.90;98.20;;;;;;5046958;28;20461;-76
2021/12/18 06:31:15;;;;;;;1.60;1.30;;;6.90;98.20;;;;;;5047572;28;20468;-77
2021/12/18 06:33:42;;;;;;;1.60;1.30;;;6.90;98.20;;;;;;5047623;28;21032;-76
2021/12/18 06:36:11;;;;;;;1.60;1.27;;;6.90;98.20;;;;;;5047160;28;20482;-77
2021/12/18 06:38:39;;;;;;;1.67;1.30;;;6.90;98.20;;;;;;5046049;28;20600;-76
2021/12/18 06:41:06;;;;;;;1.60;1.30;;;6.90;98.20;;;;;;5046340;28;20501;-77
2021/12/18 06:43:33;;;;;;;1.60;1.30;;;6.90;98.20;;;;;;5047432;28;20530;-76
2021/12/18 06:46:00;;;;;;;1.60;1.23;;;6.90;98.20;;;;;;5045999;28;20985;-76
2021/12/18 06:48:27;;;;;;;1.60;1.30;;;6.90;98.20;;;;;;5047470;28;20845;-76
2021/12/18 06:50:53;;;;;;;1.67;1.33;;;6.90;98.20;;;;;;5045963;28;20459;-76
2021/12/18 06:53:22;;;;;;;1.60;1.20;;;6.90;98.20;;;;;;5046963;28;20466;-77
2021/12/18 06:55:48;;;;;;;1.60;1.20;;;7.00;98.20;;;;;;5043598;28;20474;-77
2021/12/18 06:58:15;;;;;;;1.60;1.30;;;6.90;98.20;;;;;;5043279;28;20488;-76
2021/12/18 07:00:42;;;;;;;1.63;1.30;;;6.90;98.20;;;;;;5041747;28;20458;-76
2021/12/18 07:03:09;;;;;;;1.63;1.30;;;7.00;98.20;;;;;;5048823;28;20747;-76
2021/12/18 07:05:36;;;;;;;1.60;1.20;;;6.90;98.20;;;;;;5049524;28;20465;-75
2021/12/18 07:08:02;;;;;;;1.63;1.30;;;6.90;98.20;;;;;;5049492;28;20501;-76
2021/12/18 07:10:31;;;;;;;1.63;1.30;;;6.90;98.20;;;;;;5047654;28;20474;-76
2021/12/18 07:12:58;;;;;;;1.70;1.30;;;6.90;98.20;;;;;;5052013;28;20450;-76
2021/12/18 07:15:24;;;;;;;1.60;1.30;;;6.90;98.20;;;;;;5049578;28;20933;-76
2021/12/18 07:17:51;;;;;;;1.60;1.30;;;6.90;98.20;;;;;;5050172;28;20498;-75
2021/12/18 07:20:18;;;;;;;1.60;1.30;;;6.80;98.20;;;;;;5050671;28;20469;-75
2021/12/18 07:22:45;;;;;;;1.60;1.20;;;6.80;98.20;;;;;;5050155;28;20835;-75
2021/12/18 07:25:12;;;;;;;1.60;1.20;;;6.80;98.20;;;;;;5042926;28;20584;-76
2021/12/18 07:27:43;;;;;;;1.63;1.30;;;6.80;98.20;;;;;;5048381;28;20998;-75
2021/12/18 07:30:13;;;;;;;1.70;1.30;;;6.80;98.20;;;;;;5049804;28;20474;-75
2021/12/18 07:32:40;;;;;;;1.60;1.20;;;6.80;98.20;;;;;;5049900;28;20462;-75
2021/12/18 07:35:09;;;;;;;1.63;1.30;;;6.80;98.20;;;;;;5049971;28;20458;-75
2021/12/18 07:37:36;;;;;;;1.63;1.30;;;6.80;98.20;;;;;;5049296;28;20486;-75
2021/12/18 07:40:03;;;;;;;1.63;1.30;;;6.80;98.20;;;;;;5049581;28;20462;-74
2021/12/18 07:42:30;;;;;;;1.67;1.30;;;6.70;98.20;;;;;;5046037;28;20474;-73
2021/12/18 07:44:59;;;;;;;1.60;1.20;;;6.70;98.20;;;;;;5046579;28;20466;-74
2021/12/18 07:47:25;;;;;;;1.63;1.30;;;6.70;98.20;;;;;;5049160;28;20965;-74
2021/12/18 07:49:52;;;;;;;1.60;1.30;;;6.70;98.20;;;;;;5049275;28;20477;-74
2021/12/18 07:52:19;;;;;;;1.60;1.30;;;6.80;98.20;;;;;;5048685;28;20469;-74
2021/12/18 07:54:46;;;;;;;2.13;1.93;;;6.70;98.20;;;;;;5048344;28;20473;-73
2021/12/18 07:57:13;;;;;;;1.60;1.30;;;6.80;98.20;;;;;;5048369;28;20486;-74
2021/12/18 07:59:40;;;;;;;1.60;1.30;;;6.70;98.20;;;;;;5049968;28;20532;-73
2021/12/18 08:02:08;;;;;;;1.60;1.30;;;6.70;98.20;;;;;;5048073;28;21129;-74
2021/12/18 08:04:36;;;;;;;1.70;1.30;;;6.70;98.20;;;;;;5049018;28;20477;-74
2021/12/18 08:07:04;;;;;;;1.70;1.40;;;6.80;98.20;;;;;;5047415;28;20474;-74
2021/12/18 08:09:31;;;;;;;1.70;1.40;;;6.80;98.20;;;;;;5043316;28;20488;-73
2021/12/18 08:11:58;;;;;;;1.70;1.40;;;6.70;98.20;;;;;;5047325;28;20837;-73
2021/12/18 08:14:25;;;;;;;1.60;1.30;;;6.70;98.20;;;;;;5051487;28;20515;-73
2021/12/18 08:16:52;;;;;;;1.60;1.30;;;6.70;98.20;;;;;;5042740;28;20522;-74
2021/12/18 08:19:20;;;;;;;1.60;1.30;;;6.60;98.20;;;;;;5049433;28;20455;-73
2021/12/18 08:21:47;;;;;;;1.60;1.23;;;6.70;98.20;;;;;;5046643;28;20463;-73
2021/12/18 08:24:14;;;;;;;1.63;1.30;;;6.60;98.20;;;;;;5048534;28;20471;-73
2021/12/18 08:26:42;;;;;;;1.97;1.77;;;6.60;98.20;;;;;;5048075;28;20569;-73
2021/12/18 08:29:09;;;;;;;1.63;1.30;;;6.60;98.20;;;;;;5047888;28;20509;-73
2021/12/18 08:31:36;;;;;;;1.60;1.30;;;6.60;98.20;;;;;;5048014;28;20817;-73
2021/12/18 08:34:03;;;;;;;1.67;1.30;;;6.60;98.20;;;;;;5047892;28;20466;-74
2021/12/18 08:36:32;;;;;;;1.60;1.30;;;6.60;98.20;;;;;;5048668;28;20605;-74
2021/12/18 08:38:59;;;;;;;1.67;1.30;;;6.60;98.20;;;;;;5048232;28;20537;-74
2021/12/18 08:41:27;;;;;;;1.60;1.20;;;6.60;98.20;;;;;;5047740;28;20486;-74
2021/12/18 08:43:55;;;;;;;1.60;1.30;;;6.60;98.20;;;;;;5048476;28;20469;-74
2021/12/18 08:46:22;;;;;;;1.70;1.40;;;6.60;98.20;;;;;;5048555;28;20454;-74
2021/12/18 08:48:49;;;;;;;1.67;1.30;;;6.50;98.20;;;;;;5046259;28;20490;-74
2021/12/18 08:51:16;;;;;;;1.70;1.40;;;6.50;98.20;;;;;;5047007;28;20481;-74
2021/12/18 08:53:45;;;;;;;1.60;1.30;;;6.50;98.20;;;;;;5045015;28;20472;-74
2021/12/18 08:56:12;;;;;;;2.07;1.87;;;6.50;98.20;;;;;;5044482;28;20462;-74
2021/12/18 08:58:39;;;;;;;1.60;1.30;;;6.60;98.20;;;;;;5047858;28;20741;-74
2021/12/18 09:01:06;;;;;;;1.67;1.30;;;6.60;98.20;;;;;;5047581;28;20466;-74
2021/12/18 09:03:33;;;;;;;1.60;1.30;;;6.60;98.20;;;;;;5048118;28;21069;-74
2021/12/18 09:06:00;;;;;;;1.67;1.30;;;6.70;98.20;;;;;;5047488;28;20816;-74
2021/12/18 09:08:28;;;;;;;1.63;1.30;;;6.70;98.20;;;;;;5047732;28;20478;-74
2021/12/18 09:10:56;;;;;;;1.60;1.30;;;6.70;98.20;;;;;;5045473;28;20519;-74
2021/12/18 09:13:23;;;;;;;1.60;1.30;;;6.70;98.20;;;;;;5045784;28;20458;-74
2021/12/18 09:15:51;;;;;;;1.60;1.30;;;6.70;98.20;;;;;;5046823;28;21285;-74
2021/12/18 09:18:18;;;;;;;1.70;1.50;;;6.70;98.20;;;;;;5048176;28;20485;-74
2021/12/18 09:20:46;;;;;;;1.70;1.40;;;6.70;98.20;;;;;;5047684;28;20470;-74
2021/12/18 09:23:16;;;;;;;1.67;1.20;;;6.80;98.20;;;;;;5047581;28;20468;-74
2021/12/18 09:25:43;;;;;;;1.63;1.27;;;6.80;98.20;;;;;;5045531;28;20549;-73
2021/12/18 09:28:12;;;;;;;1.70;1.30;;;6.80;98.20;;;;;;5047935;28;20828;-73
2021/12/18 09:30:40;;;;;;;1.63;1.30;;;6.90;98.20;;;;;;5047548;28;20980;-74
2021/12/18 09:33:07;;;;;;;1.60;1.20;;;6.80;98.20;;;;;;5047395;28;20466;-73
2021/12/18 09:35:34;;;;;;;1.70;1.40;;;6.90;98.20;;;;;;5047662;28;20466;-73
2021/12/18 09:38:03;;;;;;;1.60;1.27;;;6.90;98.20;;;;;;5038721;28;20567;-74
2021/12/18 09:40:30;;;;;;;1.63;1.30;;;6.80;98.20;;;;;;5048211;28;20466;-74
2021/12/18 09:42:58;;;;;;;1.60;1.30;;;6.80;98.20;;;;;;5045112;28;20729;-73
2021/12/18 09:45:30;;;;;;;1.60;1.20;;;6.80;98.20;;;;;;5046232;28;20473;-74
2021/12/18 09:47:58;;;;;;;1.63;1.27;;;6.80;98.20;;;;;;5044828;28;20896;-75
2021/12/18 09:50:28;;;;;;;2.77;2.13;;;6.80;98.20;;;;;;5046155;28;20477;-75
2021/12/18 09:52:58;;;;;;;1.60;1.20;;;6.90;98.20;;;;;;5048832;28;20493;-77
2021/12/18 09:55:25;;;;;;;1.60;1.20;;;6.90;98.20;;;;;;5047572;28;20488;-75
2021/12/18 09:57:52;;;;;;;1.63;1.30;;;6.90;98.20;;;;;;5043169;28;20592;-73
2021/12/18 10:00:23;;;;;;;1.60;1.30;;;6.90;98.20;;;;;;5044760;28;20566;-74
2021/12/18 10:02:53;;;;;;;1.60;1.30;;;7.00;98.20;;;;;;5047038;28;20569;-74
2021/12/18 10:05:25;;;;;;;1.70;1.37;;;7.00;98.20;;;;;;5041461;28;20523;-74
2021/12/18 10:08:12;;;;;;;1.60;1.30;;;7.00;98.20;;;;;;5049479;28;20839;-79
2021/12/18 10:10:57;;;;;;;1.60;1.30;;;6.90;98.20;;;;;;5050635;28;20470;-74
2021/12/18 10:13:25;;;;;;;1.60;1.20;;;6.90;98.20;;;;;;5049120;28;20461;-78
2021/12/18 10:16:09;;;;;;;1.83;1.63;;;6.90;98.20;;;;;;5049802;28;20464;-74
2021/12/18 10:18:39;;;;;;;1.60;1.20;;;6.90;98.20;;;;;;5048092;28;20911;-75
2021/12/18 10:21:12;;;;;;;1.60;1.30;;;6.90;98.20;;;;;;5047087;28;20962;-74
2021/12/18 10:23:42;;;;;;;2.00;1.80;;;6.90;98.20;;;;;;5045865;28;20966;-76
2021/12/18 10:26:34;;;;;;;1.60;1.30;;;6.90;98.20;;;;;;5046074;28;20450;-76
2021/12/18 10:29:02;;;;;;;1.60;1.20;;;6.90;98.20;;;;;;5047131;28;20465;-74
2021/12/18 10:31:43;;;;;;;1.60;1.30;;;7.00;98.20;;;;;;5046883;28;20493;-75
2021/12/18 10:34:23;;;;;;;1.60;1.30;;;7.00;98.20;;;;;;5051107;28;20984;-74
2021/12/18 10:37:15;;;;;;;1.60;1.30;;;7.00;98.20;;;;;;5040020;28;20500;-75
2021/12/18 10:39:44;;;;;;;1.63;1.30;;;7.10;98.20;;;;;;5044525;28;21214;-76
2021/12/18 10:42:20;;;;;;;1.70;1.30;;;7.10;98.20;;;;;;5048526;28;20512;-74
2021/12/18 10:45:04;;;;;;;1.60;1.30;;;7.20;98.20;;;;;;5050318;28;21075;-74
2021/12/18 10:48:00;;;;;;;1.60;1.30;;;7.20;98.20;;;;;;5050771;28;20496;-76
2021/12/18 10:50:39;;;;;;;1.70;1.20;;;7.20;98.20;;;;;;5000522;28;20983;-74
2021/12/18 10:53:10;;;;;;;2.07;1.87;;;7.20;98.20;;;;;;5045856;28;20469;-75
2021/12/18 10:55:45;;;;;;;1.60;1.30;;;7.30;98.20;;;;;;5045055;28;20545;-76
2021/12/18 10:58:16;;;;;;;1.60;1.20;;;7.30;98.20;;;;;;5043607;28;20489;-76
2021/12/18 11:00:53;;;;;;;1.60;1.20;;;7.30;98.20;;;;;;5043274;28;20462;-75
2021/12/18 11:03:34;;;;;;;1.60;1.20;;;7.30;98.20;;;;;;5042351;28;20825;-73
2021/12/18 11:06:18;;;;;;;1.83;1.63;;;7.30;98.20;;;;;;5046850;28;20519;-74
2021/12/18 11:09:08;;;;;;;1.60;1.20;;;7.30;98.20;;;;;;5047157;28;20466;-75
2021/12/18 11:14:37;;;;;;;1.70;1.30;;;7.40;98.20;;;;;;5045957;28;20888;-74
2021/12/18 11:17:09;;;;;;;1.60;1.20;;;7.40;98.20;;;;;;5045503;28;20577;-75
2021/12/18 11:19:39;;;;;;;1.60;1.20;;;7.40;98.20;;;;;;5045462;28;20473;-76
2021/12/18 11:22:12;;;;;;;1.60;1.20;;;7.40;98.20;;;;;;5046121;28;20497;-76
2021/12/18 11:24:44;;;;;;;1.60;1.30;;;7.50;98.20;;;;;;5041625;28;20466;-76
2021/12/18 11:27:13;;;;;;;1.60;1.20;;;7.50;98.20;;;;;;5047758;28;20478;-76
2021/12/18 11:29:46;;;;;;;1.60;1.23;;;7.50;98.20;;;;;;5047174;28;20844;-76
2021/12/18 11:32:16;;;;;;;1.60;1.30;;;7.50;98.20;;;;;;5045876;28;20553;-75
2021/12/18 11:34:44;;;;;;;3.23;2.03;;;7.60;98.20;;;;;;5046982;28;20474;-75
2021/12/18 11:37:16;;;;;;;1.60;1.30;;;7.60;98.20;;;;;;5046507;28;20596;-76
2021/12/18 11:39:45;;;;;;;1.63;1.20;;;7.60;98.20;;;;;;5044741;28;21181;-76
2021/12/18 11:42:13;;;;;;;1.67;1.40;;;7.70;98.20;;;;;;5043544;28;20481;-75
2021/12/18 11:44:42;;;;;;;1.67;1.20;;;7.70;98.20;;;;;;5043921;28;20459;-76
2021/12/18 11:47:29;;;;;;;1.60;1.20;;;7.70;98.20;;;;;;5042338;28;20580;-75
2021/12/18 11:49:59;;;;;;;1.70;1.33;;;7.70;98.20;;;;;;5046441;28;20458;-74
2021/12/18 11:52:28;;;;;;;1.60;1.20;;;7.70;98.20;;;;;;5035731;28;20466;-75
2021/12/18 11:54:57;;;;;;;1.60;1.20;;;7.70;98.20;;;;;;5042931;28;20922;-74
2021/12/18 11:57:48;;;;;;;1.67;1.30;;;7.70;98.20;;;;;;5045365;28;20506;-74
2021/12/18 12:00:43;;;;;;;1.60;1.30;;;7.70;98.20;;;;;;5044431;28;20483;-73
2021/12/18 12:03:13;;;;;;;1.60;1.30;;;7.80;98.20;;;;;;5042097;28;20489;-75
2021/12/18 12:05:46;;;;;;;1.60;1.20;;;7.80;98.20;;;;;;5045666;28;20764;-74
2021/12/18 12:08:32;;;;;;;1.60;1.20;;;7.80;98.20;;;;;;5046092;28;20474;-77
2021/12/18 12:11:24;;;;;;;1.67;1.30;;;7.80;98.20;;;;;;5043029;28;20470;-74
2021/12/18 12:13:58;;;;;;;1.60;1.20;;;7.80;98.20;;;;;;5044228;28;20466;-77
2021/12/18 12:16:58;;;;;;;1.60;1.20;;;7.90;98.20;;;;;;5044900;28;20473;-74
2021/12/18 12:19:49;;;;;;;1.67;1.20;;;7.90;98.20;;;;;;5042102;28;20752;-76
2021/12/18 12:22:41;;;;;;;3.20;3.00;;;7.80;98.20;;;;;;5045687;28;20993;-76
2021/12/18 12:25:13;;;;;;;1.70;1.30;;;7.80;98.20;;;;;;5044913;28;20548;-76
2021/12/18 12:27:43;;;;;;;1.63;1.20;;;7.80;98.20;;;;;;5045621;28;20484;-76
2021/12/18 12:30:13;;;;;;;1.63;1.30;;;7.80;98.20;;;;;;5045964;28;20481;-76
2021/12/18 12:32:57;;;;;;;1.60;1.30;;;7.80;98.20;;;;;;5045375;28;20501;-74
2021/12/18 12:35:24;;;;;;;1.60;1.20;;;7.90;98.20;;;;;;5041564;28;20462;-75
2021/12/18 12:37:51;;;;;;;1.60;1.20;;;7.90;98.20;;;;;;5042451;28;20501;-74
2021/12/18 12:40:31;;;;;;;1.60;1.20;;;7.90;98.20;;;;;;5044475;28;20474;-75
2021/12/18 12:43:14;;;;;;;1.60;1.20;;;7.90;98.20;;;;;;5043908;28;20466;-75
2021/12/18 12:45:44;;;;;;;1.60;1.20;;;7.90;98.20;;;;;;5043625;28;20470;-75
2021/12/18 12:48:12;;;;;;;1.60;1.20;;;7.90;98.20;;;;;;5041723;28;20474;-73
2021/12/18 12:50:40;;;;;;;1.67;1.30;;;7.90;98.20;;;;;;5041651;28;20887;-75
2021/12/18 12:53:09;;;;;;;1.60;1.20;;;7.90;98.20;;;;;;5040787;28;20454;-74
2021/12/18 12:55:42;;;;;;;1.60;1.20;;;7.90;98.20;;;;;;5040777;28;20984;-76
2021/12/18 12:58:18;;;;;;;1.60;1.17;;;7.90;98.20;;;;;;5039746;28;20830;-76
2021/12/18 13:00:49;;;;;;;1.60;1.20;;;7.90;98.20;;;;;;5038287;28;20530;-75
2021/12/18 13:03:23;;;;;;;1.67;1.27;;;7.90;98.20;;;;;;5044104;28;20966;-76
2021/12/18 13:06:07;;;;;;;1.60;1.20;;;7.90;98.20;;;;;;5035339;28;20503;-74
2021/12/18 13:08:36;;;;;;;1.60;1.20;;;7.90;98.20;;;;;;5031726;28;20736;-75
2021/12/18 13:11:06;;;;;;;1.60;1.20;;;8.00;98.20;;;;;;5041879;28;20470;-76
2021/12/18 13:13:35;;;;;;;1.60;1.20;;;8.00;98.20;;;;;;5042033;28;20462;-74
2021/12/18 13:16:09;;;;;;;1.60;1.20;;;8.00;98.20;;;;;;5040103;28;20477;-75
2021/12/18 13:18:39;;;;;;;1.60;1.20;;;8.00;98.20;;;;;;5042696;28;20486;-73
2021/12/18 13:21:09;;;;;;;1.63;1.30;;;8.00;98.20;;;;;;5038980;28;20552;-75
2021/12/18 13:23:50;;;;;;;1.60;1.20;;;8.00;98.20;;;;;;5044849;28;20455;-75
2021/12/18 13:26:22;;;;;;;1.60;1.20;;;8.00;98.20;;;;;;5041044;28;20500;-75
2021/12/18 13:28:56;;;;;;;1.60;1.20;;;8.10;98.20;;;;;;5042344;28;20463;-76
2021/12/18 13:31:26;;;;;;;1.60;1.20;;;8.00;98.20;;;;;;5043715;28;20969;-75
2021/12/18 13:33:59;;;;;;;1.60;1.20;;;8.00;98.20;;;;;;5043221;28;20847;-76
2021/12/18 13:36:38;;;;;;;1.60;1.20;;;8.00;98.20;;;;;;5043115;28;20486;-75
2021/12/18 13:39:10;;;;;;;1.60;1.20;;;8.00;98.20;;;;;;5041931;28;20494;-75
2021/12/18 13:41:39;;;;;;;1.60;1.20;;;8.00;98.20;;;;;;5042485;28;20469;-75
2021/12/18 13:44:06;;;;;;;1.70;1.40;;;8.00;98.20;;;;;;5042402;28;21532;-75
2021/12/18 13:46:34;;;;;;;1.60;1.20;;;8.00;98.20;;;;;;5043446;28;20543;-76
2021/12/18 13:49:01;;;;;;;1.60;1.20;;;8.00;98.20;;;;;;5041115;28;20465;-76